sensor_id;sensor_type;location;lat;lon;timestamp;temperature;humidity
7622;DHT22;3852;52.284;8.032;2022-11-02T00:01:42;13.70;99.90
7622;DHT22;3852;52.284;8.032;2022-11-02T00:04:09;13.60;99.90
7622;DHT22;3852;52.284;8.032;2022-11-02T00:06:35;13.50;99.90
7622;DHT22;3852;52.284;8.032;2022-11-02T00:09:01;13.60;99.90
7622;DHT22;3852;52.284;8.032;2022-11-02T00:11:27;13.50;99.90
7622;DHT22;3852;52.284;8.032;2022-11-02T00:13:53;13.50;99.90
7622;DHT22;3852;52.284;8.032;2022-11-02T00:16:20;13.50;99.90
7622;DHT22;3852;52.284;8.032;2022-11-02T00:18:49;13.50;99.90
7622;DHT22;3852;52.284;8.032;2022-11-02T00:21:17;13.50;99.90
7622;DHT22;3852;52.284;8.032;2022-11-02T00:23:44;13.60;99.90
7622;DHT22;3852;52.284;8.032;2022-11-02T00:26:10;13.50;99.90
7622;DHT22;3852;52.284;8.032;2022-11-02T00:28:37;13.60;99.90
7622;DHT22;3852;52.284;8.032;2022-11-02T00:31:02;13.30;99.90
7622;DHT22;3852;52.284;8.032;2022-11-02T00:33:28;13.40;99.90
7622;DHT22;3852;52.284;8.032;2022-11-02T00:35:54;13.30;99.90
7622;DHT22;3852;52.284;8.032;2022-11-02T00:38:20;13.30;99.90
7622;DHT22;3852;52.284;8.032;2022-11-02T00:40:46;13.20;99.90
7622;DHT22;3852;52.284;8.032;2022-11-02T00:43:12;13.00;99.90
7622;DHT22;3852;52.284;8.032;2022-11-02T00:45:37;12.90;99.90
7622;DHT22;3852;52.284;8.032;2022-11-02T00:48:04;13.00;99.90
7622;DHT22;3852;52.284;8.032;2022-11-02T00:50:30;12.90;99.90
7622;DHT22;3852;52.284;8.032;2022-11-02T00:52:56;12.90;99.90
7622;DHT22;3852;52.284;8.032;2022-11-02T00:55:22;12.70;99.90
7622;DHT22;3852;52.284;8.032;2022-11-02T00:57:47;12.60;99.90
7622;DHT22;3852;52.284;8.032;2022-11-02T01:00:14;12.80;99.90
7622;DHT22;3852;52.284;8.032;2022-11-02T01:02:41;12.70;99.90
7622;DHT22;3852;52.284;8.032;2022-11-02T01:05:09;12.70;99.90
7622;DHT22;3852;52.284;8.032;2022-11-02T01:07:35;12.70;99.90
7622;DHT22;3852;52.284;8.032;2022-11-02T01:10:06;12.70;99.90
7622;DHT22;3852;52.284;8.032;2022-11-02T01:12:35;12.80;99.90
7622;DHT22;3852;52.284;8.032;2022-11-02T01:15:01;12.80;99.90
7622;DHT22;3852;52.284;8.032;2022-11-02T01:17:27;12.80;99.90
7622;DHT22;3852;52.284;8.032;2022-11-02T01:19:54;12.80;99.90
7622;DHT22;3852;52.284;8.032;2022-11-02T01:22:19;12.60;99.90
7622;DHT22;3852;52.284;8.032;2022-11-02T01:24:45;12.70;99.90
7622;DHT22;3852;52.284;8.032;2022-11-02T01:27:11;12.60;99.90
7622;DHT22;3852;52.284;8.032;2022-11-02T01:29:37;12.60;99.90
7622;DHT22;3852;52.284;8.032;2022-11-02T01:32:02;12.50;99.90
7622;DHT22;3852;52.284;8.032;2022-11-02T01:34:28;12.50;99.90
7622;DHT22;3852;52.284;8.032;2022-11-02T01:36:54;12.40;99.90
7622;DHT22;3852;52.284;8.032;2022-11-02T01:39:20;12.40;99.90
7622;DHT22;3852;52.284;8.032;2022-11-02T01:41:50;12.50;99.90
7622;DHT22;3852;52.284;8.032;2022-11-02T01:49:49;12.50;99.90
7622;DHT22;3852;52.284;8.032;2022-11-02T01:52:26;12.60;99.90
7622;DHT22;3852;52.284;8.032;2022-11-02T01:54:58;12.60;99.90
7622;DHT22;3852;52.284;8.032;2022-11-02T01:57:28;12.60;99.90
7622;DHT22;3852;52.284;8.032;2022-11-02T02:00:15;12.60;99.90
7622;DHT22;3852;52.284;8.032;2022-11-02T02:02:51;12.60;99.90
7622;DHT22;3852;52.284;8.032;2022-11-02T02:05:22;12.70;99.90
7622;DHT22;3852;52.284;8.032;2022-11-02T02:07:49;12.70;99.90
7622;DHT22;3852;52.284;8.032;2022-11-02T02:10:16;12.80;99.90
7622;DHT22;3852;52.284;8.032;2022-11-02T02:12:43;12.70;99.90
7622;DHT22;3852;52.284;8.032;2022-11-02T02:15:10;12.80;99.90
7622;DHT22;3852;52.284;8.032;2022-11-02T02:26:04;12.80;99.90
7622;DHT22;3852;52.284;8.032;2022-11-02T02:29:01;12.80;99.90
7622;DHT22;3852;52.284;8.032;2022-11-02T02:31:36;12.80;99.90
7622;DHT22;3852;52.284;8.032;2022-11-02T02:34:14;12.90;99.90
7622;DHT22;3852;52.284;8.032;2022-11-02T02:37:02;12.90;99.90
7622;DHT22;3852;52.284;8.032;2022-11-02T02:39:40;12.90;99.90
7622;DHT22;3852;52.284;8.032;2022-11-02T02:42:24;12.90;99.90
7622;DHT22;3852;52.284;8.032;2022-11-02T02:45:05;12.80;99.90
7622;DHT22;3852;52.284;8.032;2022-11-02T02:50:46;12.90;99.90
7622;DHT22;3852;52.284;8.032;2022-11-02T02:53:16;12.80;99.90
7622;DHT22;3852;52.284;8.032;2022-11-02T02:55:45;12.90;99.90
7622;DHT22;3852;52.284;8.032;2022-11-02T02:58:23;12.90;99.90
7622;DHT22;3852;52.284;8.032;2022-11-02T03:00:51;13.00;99.90
7622;DHT22;3852;52.284;8.032;2022-11-02T03:03:20;13.00;99.90
7622;DHT22;3852;52.284;8.032;2022-11-02T03:06:03;13.00;99.90
7622;DHT22;3852;52.284;8.032;2022-11-02T03:08:38;13.00;99.90
7622;DHT22;3852;52.284;8.032;2022-11-02T03:11:16;13.00;99.90
7622;DHT22;3852;52.284;8.032;2022-11-02T03:19:23;13.00;99.90
7622;DHT22;3852;52.284;8.032;2022-11-02T03:22:00;13.00;99.90
7622;DHT22;3852;52.284;8.032;2022-11-02T03:27:07;13.00;99.90
7622;DHT22;3852;52.284;8.032;2022-11-02T03:30:12;13.00;99.90
7622;DHT22;3852;52.284;8.032;2022-11-02T03:35:51;13.00;99.90
7622;DHT22;3852;52.284;8.032;2022-11-02T03:38:31;13.00;99.90
7622;DHT22;3852;52.284;8.032;2022-11-02T03:41:02;13.00;99.90
7622;DHT22;3852;52.284;8.032;2022-11-02T03:43:31;13.00;99.90
7622;DHT22;3852;52.284;8.032;2022-11-02T03:46:01;13.00;99.90
7622;DHT22;3852;52.284;8.032;2022-11-02T03:48:33;13.00;99.90
7622;DHT22;3852;52.284;8.032;2022-11-02T03:51:06;13.00;99.90
7622;DHT22;3852;52.284;8.032;2022-11-02T03:54:06;13.00;99.90
7622;DHT22;3852;52.284;8.032;2022-11-02T03:56:39;13.00;99.90
7622;DHT22;3852;52.284;8.032;2022-11-02T03:59:07;12.90;99.90
7622;DHT22;3852;52.284;8.032;2022-11-02T04:01:39;13.00;99.90
7622;DHT22;3852;52.284;8.032;2022-11-02T04:04:06;13.00;99.90
7622;DHT22;3852;52.284;8.032;2022-11-02T04:06:33;13.10;99.90
7622;DHT22;3852;52.284;8.032;2022-11-02T04:08:59;13.00;99.90
7622;DHT22;3852;52.284;8.032;2022-11-02T04:11:25;13.00;99.90
7622;DHT22;3852;52.284;8.032;2022-11-02T04:14:11;13.00;99.90
7622;DHT22;3852;52.284;8.032;2022-11-02T04:16:55;13.10;99.90
7622;DHT22;3852;52.284;8.032;2022-11-02T04:19:39;13.00;99.90
7622;DHT22;3852;52.284;8.032;2022-11-02T04:22:05;13.10;99.90
7622;DHT22;3852;52.284;8.032;2022-11-02T04:24:50;13.00;99.90
7622;DHT22;3852;52.284;8.032;2022-11-02T04:27:34;13.10;99.90
7622;DHT22;3852;52.284;8.032;2022-11-02T04:29:59;13.00;99.90
7622;DHT22;3852;52.284;8.032;2022-11-02T04:32:25;13.10;99.90
7622;DHT22;3852;52.284;8.032;2022-11-02T04:35:09;13.10;99.90
7622;DHT22;3852;52.284;8.032;2022-11-02T04:37:42;13.00;99.90
7622;DHT22;3852;52.284;8.032;2022-11-02T04:40:27;13.00;99.90
7622;DHT22;3852;52.284;8.032;2022-11-02T04:42:53;13.00;99.90
7622;DHT22;3852;52.284;8.032;2022-11-02T04:45:19;13.00;99.90
7622;DHT22;3852;52.284;8.032;2022-11-02T04:47:45;13.00;99.90
7622;DHT22;3852;52.284;8.032;2022-11-02T04:50:13;13.20;99.90
7622;DHT22;3852;52.284;8.032;2022-11-02T04:52:39;13.20;99.90
7622;DHT22;3852;52.284;8.032;2022-11-02T04:55:05;13.20;99.90
7622;DHT22;3852;52.284;8.032;2022-11-02T04:57:31;13.20;99.90
7622;DHT22;3852;52.284;8.032;2022-11-02T04:59:57;13.10;99.90
7622;DHT22;3852;52.284;8.032;2022-11-02T05:02:23;13.10;99.90
7622;DHT22;3852;52.284;8.032;2022-11-02T05:04:49;13.00;99.90
7622;DHT22;3852;52.284;8.032;2022-11-02T05:07:14;13.00;99.90
7622;DHT22;3852;52.284;8.032;2022-11-02T05:09:40;13.00;99.90
7622;DHT22;3852;52.284;8.032;2022-11-02T05:12:08;13.00;99.90
7622;DHT22;3852;52.284;8.032;2022-11-02T05:14:34;13.00;99.90
7622;DHT22;3852;52.284;8.032;2022-11-02T05:17:00;13.00;99.90
7622;DHT22;3852;52.284;8.032;2022-11-02T05:19:26;12.90;99.90
7622;DHT22;3852;52.284;8.032;2022-11-02T05:21:52;12.90;99.90
7622;DHT22;3852;52.284;8.032;2022-11-02T05:24:17;13.00;99.90
7622;DHT22;3852;52.284;8.032;2022-11-02T05:26:43;12.90;99.90
7622;DHT22;3852;52.284;8.032;2022-11-02T05:29:09;13.00;99.90
7622;DHT22;3852;52.284;8.032;2022-11-02T05:31:37;13.10;99.90
7622;DHT22;3852;52.284;8.032;2022-11-02T05:34:03;13.10;99.90
7622;DHT22;3852;52.284;8.032;2022-11-02T05:36:28;13.00;99.90
7622;DHT22;3852;52.284;8.032;2022-11-02T05:38:54;13.00;99.90
7622;DHT22;3852;52.284;8.032;2022-11-02T05:41:21;13.00;99.90
7622;DHT22;3852;52.284;8.032;2022-11-02T05:43:47;13.00;99.90
7622;DHT22;3852;52.284;8.032;2022-11-02T05:46:13;13.00;99.90
7622;DHT22;3852;52.284;8.032;2022-11-02T05:48:40;13.00;99.90
7622;DHT22;3852;52.284;8.032;2022-11-02T05:51:06;13.00;99.90
7622;DHT22;3852;52.284;8.032;2022-11-02T05:53:32;13.00;99.90
7622;DHT22;3852;52.284;8.032;2022-11-02T05:56:06;13.00;99.90
7622;DHT22;3852;52.284;8.032;2022-11-02T05:58:32;13.00;99.90
7622;DHT22;3852;52.284;8.032;2022-11-02T06:01:04;13.00;99.90
7622;DHT22;3852;52.284;8.032;2022-11-02T06:03:31;13.00;99.90
7622;DHT22;3852;52.284;8.032;2022-11-02T06:05:58;13.10;99.90
7622;DHT22;3852;52.284;8.032;2022-11-02T06:08:25;13.10;99.90
7622;DHT22;3852;52.284;8.032;2022-11-02T06:10:51;13.10;99.90
7622;DHT22;3852;52.284;8.032;2022-11-02T06:13:19;13.10;99.90
7622;DHT22;3852;52.284;8.032;2022-11-02T06:15:45;13.10;99.90
7622;DHT22;3852;52.284;8.032;2022-11-02T06:18:11;13.10;99.90
7622;DHT22;3852;52.284;8.032;2022-11-02T06:20:37;13.00;99.90
7622;DHT22;3852;52.284;8.032;2022-11-02T06:23:02;13.00;99.90
7622;DHT22;3852;52.284;8.032;2022-11-02T06:25:28;13.10;99.90
7622;DHT22;3852;52.284;8.032;2022-11-02T06:27:55;13.10;99.90
7622;DHT22;3852;52.284;8.032;2022-11-02T06:30:25;13.10;99.90
7622;DHT22;3852;52.284;8.032;2022-11-02T06:32:52;13.00;99.90
7622;DHT22;3852;52.284;8.032;2022-11-02T06:35:20;13.00;99.90
7622;DHT22;3852;52.284;8.032;2022-11-02T06:37:46;13.00;99.90
7622;DHT22;3852;52.284;8.032;2022-11-02T06:40:13;13.00;99.90
7622;DHT22;3852;52.284;8.032;2022-11-02T06:42:39;13.00;99.90
7622;DHT22;3852;52.284;8.032;2022-11-02T06:45:06;12.90;99.90
7622;DHT22;3852;52.284;8.032;2022-11-02T06:47:34;12.90;99.90
7622;DHT22;3852;52.284;8.032;2022-11-02T06:50:01;12.90;99.90
7622;DHT22;3852;52.284;8.032;2022-11-02T06:52:27;12.90;99.90
7622;DHT22;3852;52.284;8.032;2022-11-02T06:54:53;12.90;99.90
7622;DHT22;3852;52.284;8.032;2022-11-02T06:57:21;12.90;99.90
7622;DHT22;3852;52.284;8.032;2022-11-02T06:59:47;12.90;99.90
7622;DHT22;3852;52.284;8.032;2022-11-02T07:02:13;12.90;99.90
7622;DHT22;3852;52.284;8.032;2022-11-02T07:04:42;13.00;99.90
7622;DHT22;3852;52.284;8.032;2022-11-02T07:07:07;12.90;99.90
7622;DHT22;3852;52.284;8.032;2022-11-02T07:09:33;13.00;99.90
7622;DHT22;3852;52.284;8.032;2022-11-02T07:11:59;13.10;99.90
7622;DHT22;3852;52.284;8.032;2022-11-02T07:14:27;13.10;99.90
7622;DHT22;3852;52.284;8.032;2022-11-02T07:16:53;13.10;99.90
7622;DHT22;3852;52.284;8.032;2022-11-02T07:19:18;13.00;99.90
7622;DHT22;3852;52.284;8.032;2022-11-02T07:21:44;13.00;99.90
7622;DHT22;3852;52.284;8.032;2022-11-02T07:24:10;13.00;99.90
7622;DHT22;3852;52.284;8.032;2022-11-02T07:26:36;13.00;99.90
7622;DHT22;3852;52.284;8.032;2022-11-02T07:29:02;13.00;99.90
7622;DHT22;3852;52.284;8.032;2022-11-02T07:31:28;13.00;99.90
7622;DHT22;3852;52.284;8.032;2022-11-02T07:33:54;13.10;99.90
7622;DHT22;3852;52.284;8.032;2022-11-02T07:36:20;13.10;99.90
7622;DHT22;3852;52.284;8.032;2022-11-02T07:38:46;13.00;99.90
7622;DHT22;3852;52.284;8.032;2022-11-02T07:41:13;12.90;99.90
7622;DHT22;3852;52.284;8.032;2022-11-02T07:43:39;12.90;99.90
7622;DHT22;3852;52.284;8.032;2022-11-02T07:46:05;12.90;99.90
7622;DHT22;3852;52.284;8.032;2022-11-02T07:48:31;13.00;99.90
7622;DHT22;3852;52.284;8.032;2022-11-02T07:50:57;13.00;99.90
7622;DHT22;3852;52.284;8.032;2022-11-02T07:53:26;13.00;99.90
7622;DHT22;3852;52.284;8.032;2022-11-02T07:55:52;13.00;99.90
7622;DHT22;3852;52.284;8.032;2022-11-02T07:58:18;13.10;99.90
7622;DHT22;3852;52.284;8.032;2022-11-02T08:00:44;13.00;99.90
7622;DHT22;3852;52.284;8.032;2022-11-02T08:03:10;13.00;99.90
7622;DHT22;3852;52.284;8.032;2022-11-02T08:05:39;13.10;99.90
7622;DHT22;3852;52.284;8.032;2022-11-02T08:08:07;13.10;99.90
7622;DHT22;3852;52.284;8.032;2022-11-02T08:10:39;13.00;99.90
7622;DHT22;3852;52.284;8.032;2022-11-02T08:13:08;13.00;99.90
7622;DHT22;3852;52.284;8.032;2022-11-02T08:15:36;13.10;99.90
7622;DHT22;3852;52.284;8.032;2022-11-02T08:18:07;13.00;99.90
7622;DHT22;3852;52.284;8.032;2022-11-02T08:20:38;13.10;99.90
7622;DHT22;3852;52.284;8.032;2022-11-02T08:23:04;13.00;99.90
7622;DHT22;3852;52.284;8.032;2022-11-02T08:25:32;13.10;99.90
7622;DHT22;3852;52.284;8.032;2022-11-02T08:27:59;13.10;99.90
7622;DHT22;3852;52.284;8.032;2022-11-02T08:30:27;13.00;99.90
7622;DHT22;3852;52.284;8.032;2022-11-02T08:32:54;13.00;99.90
7622;DHT22;3852;52.284;8.032;2022-11-02T08:35:19;13.00;99.90
7622;DHT22;3852;52.284;8.032;2022-11-02T08:37:54;13.00;99.90
7622;DHT22;3852;52.284;8.032;2022-11-02T08:40:20;13.00;99.90
7622;DHT22;3852;52.284;8.032;2022-11-02T08:42:46;13.00;99.90
7622;DHT22;3852;52.284;8.032;2022-11-02T08:45:12;13.10;99.90
7622;DHT22;3852;52.284;8.032;2022-11-02T08:47:41;13.10;99.90
7622;DHT22;3852;52.284;8.032;2022-11-02T08:50:08;13.20;99.90
7622;DHT22;3852;52.284;8.032;2022-11-02T08:52:38;13.20;99.90
7622;DHT22;3852;52.284;8.032;2022-11-02T08:55:04;13.10;99.90
7622;DHT22;3852;52.284;8.032;2022-11-02T08:57:31;13.10;99.90
7622;DHT22;3852;52.284;8.032;2022-11-02T08:59:56;13.10;99.90
7622;DHT22;3852;52.284;8.032;2022-11-02T09:02:22;13.20;99.90
7622;DHT22;3852;52.284;8.032;2022-11-02T09:04:48;13.20;99.90
7622;DHT22;3852;52.284;8.032;2022-11-02T09:07:14;13.30;99.90
7622;DHT22;3852;52.284;8.032;2022-11-02T09:09:40;13.20;99.90
7622;DHT22;3852;52.284;8.032;2022-11-02T09:12:06;13.30;99.90
7622;DHT22;3852;52.284;8.032;2022-11-02T09:14:32;13.30;99.90
7622;DHT22;3852;52.284;8.032;2022-11-02T09:16:57;13.30;99.90
7622;DHT22;3852;52.284;8.032;2022-11-02T09:19:23;13.30;99.90
7622;DHT22;3852;52.284;8.032;2022-11-02T09:21:49;13.30;99.90
7622;DHT22;3852;52.284;8.032;2022-11-02T09:24:15;13.40;99.90
7622;DHT22;3852;52.284;8.032;2022-11-02T09:26:41;13.40;99.90
7622;DHT22;3852;52.284;8.032;2022-11-02T09:29:07;13.40;99.90
7622;DHT22;3852;52.284;8.032;2022-11-02T09:31:33;13.30;99.90
7622;DHT22;3852;52.284;8.032;2022-11-02T09:33:59;13.40;99.90
7622;DHT22;3852;52.284;8.032;2022-11-02T09:36:24;13.30;99.90
7622;DHT22;3852;52.284;8.032;2022-11-02T09:38:50;13.50;99.90
7622;DHT22;3852;52.284;8.032;2022-11-02T09:41:32;13.60;99.90
7622;DHT22;3852;52.284;8.032;2022-11-02T09:44:20;13.70;99.90
7622;DHT22;3852;52.284;8.032;2022-11-02T09:46:52;13.50;99.90
7622;DHT22;3852;52.284;8.032;2022-11-02T09:49:21;13.50;99.90
7622;DHT22;3852;52.284;8.032;2022-11-02T09:51:52;13.40;99.90
7622;DHT22;3852;52.284;8.032;2022-11-02T09:54:42;13.40;99.90
7622;DHT22;3852;52.284;8.032;2022-11-02T09:57:20;13.50;99.90
7622;DHT22;3852;52.284;8.032;2022-11-02T09:59:55;13.60;99.90
7622;DHT22;3852;52.284;8.032;2022-11-02T10:14:14;13.70;99.90
7622;DHT22;3852;52.284;8.032;2022-11-02T10:16:54;13.70;99.90
7622;DHT22;3852;52.284;8.032;2022-11-02T10:19:24;13.70;99.90
7622;DHT22;3852;52.284;8.032;2022-11-02T10:21:55;13.70;99.90
7622;DHT22;3852;52.284;8.032;2022-11-02T10:27:01;13.70;99.90
7622;DHT22;3852;52.284;8.032;2022-11-02T10:32:34;13.90;99.90
7622;DHT22;3852;52.284;8.032;2022-11-02T10:35:03;13.80;99.90
7622;DHT22;3852;52.284;8.032;2022-11-02T10:46:12;14.00;99.90
7622;DHT22;3852;52.284;8.032;2022-11-02T10:49:20;14.10;99.90
7622;DHT22;3852;52.284;8.032;2022-11-02T10:51:57;14.30;99.90
7622;DHT22;3852;52.284;8.032;2022-11-02T10:54:25;14.40;99.90
7622;DHT22;3852;52.284;8.032;2022-11-02T10:56:51;14.30;99.90
7622;DHT22;3852;52.284;8.032;2022-11-02T10:59:19;14.20;99.90
7622;DHT22;3852;52.284;8.032;2022-11-02T11:04:32;14.00;99.90
7622;DHT22;3852;52.284;8.032;2022-11-02T11:07:21;14.00;99.90
7622;DHT22;3852;52.284;8.032;2022-11-02T11:09:53;14.10;99.90
7622;DHT22;3852;52.284;8.032;2022-11-02T11:12:30;14.10;99.90
7622;DHT22;3852;52.284;8.032;2022-11-02T11:15:01;14.00;99.90
7622;DHT22;3852;52.284;8.032;2022-11-02T11:17:31;14.00;99.90
7622;DHT22;3852;52.284;8.032;2022-11-02T11:19:59;13.90;99.90
7622;DHT22;3852;52.284;8.032;2022-11-02T11:22:32;14.00;99.90
7622;DHT22;3852;52.284;8.032;2022-11-02T11:27:58;14.20;99.90
7622;DHT22;3852;52.284;8.032;2022-11-02T11:30:31;14.00;99.90
7622;DHT22;3852;52.284;8.032;2022-11-02T11:32:59;14.00;99.90
7622;DHT22;3852;52.284;8.032;2022-11-02T11:35:34;14.00;99.90
7622;DHT22;3852;52.284;8.032;2022-11-02T11:38:13;14.20;99.90
7622;DHT22;3852;52.284;8.032;2022-11-02T11:40:47;14.40;99.90
7622;DHT22;3852;52.284;8.032;2022-11-02T11:43:21;14.60;99.90
7622;DHT22;3852;52.284;8.032;2022-11-02T11:45:58;14.70;99.90
7622;DHT22;3852;52.284;8.032;2022-11-02T11:48:47;14.50;99.90
7622;DHT22;3852;52.284;8.032;2022-11-02T11:56:47;14.20;99.90
7622;DHT22;3852;52.284;8.032;2022-11-02T11:59:43;14.40;99.90
7622;DHT22;3852;52.284;8.032;2022-11-02T12:04:58;14.60;99.90
7622;DHT22;3852;52.284;8.032;2022-11-02T12:07:46;14.80;99.90
7622;DHT22;3852;52.284;8.032;2022-11-02T12:21:57;14.30;99.90
7622;DHT22;3852;52.284;8.032;2022-11-02T12:30:55;14.20;99.90
7622;DHT22;3852;52.284;8.032;2022-11-02T12:33:32;14.30;99.90
7622;DHT22;3852;52.284;8.032;2022-11-02T12:36:09;14.30;99.90
7622;DHT22;3852;52.284;8.032;2022-11-02T12:41:54;14.30;99.90
7622;DHT22;3852;52.284;8.032;2022-11-02T12:44:43;14.30;99.90
7622;DHT22;3852;52.284;8.032;2022-11-02T12:48:08;14.50;99.90
7622;DHT22;3852;52.284;8.032;2022-11-02T12:53:48;14.90;99.90
7622;DHT22;3852;52.284;8.032;2022-11-02T12:56:53;15.00;99.90
7622;DHT22;3852;52.284;8.032;2022-11-02T12:59:22;15.00;99.90
7622;DHT22;3852;52.284;8.032;2022-11-02T13:02:15;15.10;99.90
7622;DHT22;3852;52.284;8.032;2022-11-02T13:07:33;15.30;99.90
7622;DHT22;3852;52.284;8.032;2022-11-02T13:10:23;15.30;99.90
7622;DHT22;3852;52.284;8.032;2022-11-02T13:12:57;15.10;99.90
7622;DHT22;3852;52.284;8.032;2022-11-02T13:15:25;15.10;99.90
7622;DHT22;3852;52.284;8.032;2022-11-02T13:18:05;15.00;99.90
7622;DHT22;3852;52.284;8.032;2022-11-02T13:20:40;15.00;99.90
7622;DHT22;3852;52.284;8.032;2022-11-02T13:23:38;15.10;99.90
7622;DHT22;3852;52.284;8.032;2022-11-02T13:26:23;15.10;99.90
7622;DHT22;3852;52.284;8.032;2022-11-02T13:28:58;15.00;99.90
7622;DHT22;3852;52.284;8.032;2022-11-02T13:31:33;15.00;99.90
7622;DHT22;3852;52.284;8.032;2022-11-02T13:34:04;14.80;99.90
7622;DHT22;3852;52.284;8.032;2022-11-02T13:36:38;15.00;99.90
7622;DHT22;3852;52.284;8.032;2022-11-02T13:39:09;15.00;99.90
7622;DHT22;3852;52.284;8.032;2022-11-02T13:45:08;14.90;99.90
7622;DHT22;3852;52.284;8.032;2022-11-02T13:50:51;14.90;99.90
7622;DHT22;3852;52.284;8.032;2022-11-02T13:53:33;15.00;99.90
7622;DHT22;3852;52.284;8.032;2022-11-02T13:56:08;14.90;99.90
7622;DHT22;3852;52.284;8.032;2022-11-02T13:58:47;14.80;99.90
7622;DHT22;3852;52.284;8.032;2022-11-02T14:01:18;14.60;99.90
7622;DHT22;3852;52.284;8.032;2022-11-02T14:03:57;14.50;99.90
7622;DHT22;3852;52.284;8.032;2022-11-02T14:06:43;14.40;99.90
7622;DHT22;3852;52.284;8.032;2022-11-02T14:09:35;14.30;99.90
7622;DHT22;3852;52.284;8.032;2022-11-02T14:12:23;14.30;99.90
7622;DHT22;3852;52.284;8.032;2022-11-02T14:25:53;14.60;99.90
7622;DHT22;3852;52.284;8.032;2022-11-02T14:39:18;14.30;99.90
7622;DHT22;3852;52.284;8.032;2022-11-02T14:45:02;14.40;99.90
7622;DHT22;3852;52.284;8.032;2022-11-02T14:47:40;14.30;99.90
7622;DHT22;3852;52.284;8.032;2022-11-02T14:53:00;14.20;99.90
7622;DHT22;3852;52.284;8.032;2022-11-02T14:55:34;14.20;99.90
7622;DHT22;3852;52.284;8.032;2022-11-02T14:58:15;14.10;99.90
7622;DHT22;3852;52.284;8.032;2022-11-02T15:03:35;14.10;99.90
7622;DHT22;3852;52.284;8.032;2022-11-02T15:08:56;14.20;99.90
7622;DHT22;3852;52.284;8.032;2022-11-02T15:11:44;14.10;99.90
7622;DHT22;3852;52.284;8.032;2022-11-02T15:20:36;14.00;99.90
7622;DHT22;3852;52.284;8.032;2022-11-02T15:22:49;13.90;99.90
7622;DHT22;3852;52.284;8.032;2022-11-02T15:28:01;13.90;99.90
7622;DHT22;3852;52.284;8.032;2022-11-02T15:30:30;13.80;99.90
7622;DHT22;3852;52.284;8.032;2022-11-02T15:33:05;13.80;99.90
7622;DHT22;3852;52.284;8.032;2022-11-02T15:35:34;13.80;99.90
7622;DHT22;3852;52.284;8.032;2022-11-02T15:38:03;13.80;99.90
7622;DHT22;3852;52.284;8.032;2022-11-02T15:40:33;13.70;99.90
7622;DHT22;3852;52.284;8.032;2022-11-02T15:46:03;13.70;99.90
7622;DHT22;3852;52.284;8.032;2022-11-02T15:48:48;13.70;99.90
7622;DHT22;3852;52.284;8.032;2022-11-02T15:51:44;13.60;99.90
7622;DHT22;3852;52.284;8.032;2022-11-02T16:00:21;13.50;99.90
7622;DHT22;3852;52.284;8.032;2022-11-02T16:05:30;13.40;99.90
7622;DHT22;3852;52.284;8.032;2022-11-02T16:07:58;13.40;99.90
7622;DHT22;3852;52.284;8.032;2022-11-02T16:10:33;13.40;99.90
7622;DHT22;3852;52.284;8.032;2022-11-02T16:13:14;13.30;99.90
7622;DHT22;3852;52.284;8.032;2022-11-02T16:15:41;13.20;99.90
7622;DHT22;3852;52.284;8.032;2022-11-02T16:18:34;13.30;99.90
7622;DHT22;3852;52.284;8.032;2022-11-02T16:21:06;13.30;99.90
7622;DHT22;3852;52.284;8.032;2022-11-02T16:23:39;13.30;99.90
7622;DHT22;3852;52.284;8.032;2022-11-02T16:26:10;13.30;99.90
7622;DHT22;3852;52.284;8.032;2022-11-02T16:28:50;13.30;99.90
7622;DHT22;3852;52.284;8.032;2022-11-02T16:31:24;13.20;99.90
7622;DHT22;3852;52.284;8.032;2022-11-02T16:34:06;13.20;99.90
7622;DHT22;3852;52.284;8.032;2022-11-02T16:36:40;13.20;99.90
7622;DHT22;3852;52.284;8.032;2022-11-02T16:39:09;13.10;99.90
7622;DHT22;3852;52.284;8.032;2022-11-02T16:41:58;13.20;99.90
7622;DHT22;3852;52.284;8.032;2022-11-02T16:44:27;13.00;99.90
7622;DHT22;3852;52.284;8.032;2022-11-02T16:47:15;12.90;99.90
7622;DHT22;3852;52.284;8.032;2022-11-02T16:54:42;12.30;99.90
7622;DHT22;3852;52.284;8.032;2022-11-02T16:57:16;12.20;99.90
7622;DHT22;3852;52.284;8.032;2022-11-02T16:59:49;12.10;99.90
7622;DHT22;3852;52.284;8.032;2022-11-02T17:02:18;12.00;99.90
7622;DHT22;3852;52.284;8.032;2022-11-02T17:04:54;11.90;99.90
7622;DHT22;3852;52.284;8.032;2022-11-02T17:07:34;11.80;99.90
7622;DHT22;3852;52.284;8.032;2022-11-02T17:10:07;11.70;99.90
7622;DHT22;3852;52.284;8.032;2022-11-02T17:12:36;11.70;99.90
7622;DHT22;3852;52.284;8.032;2022-11-02T17:15:20;11.60;99.90
7622;DHT22;3852;52.284;8.032;2022-11-02T17:18:12;11.50;99.90
7622;DHT22;3852;52.284;8.032;2022-11-02T17:21:28;11.50;99.90
7622;DHT22;3852;52.284;8.032;2022-11-02T17:23:56;11.40;99.90
7622;DHT22;3852;52.284;8.032;2022-11-02T17:28:59;11.40;99.90
7622;DHT22;3852;52.284;8.032;2022-11-02T17:31:30;11.30;99.90
7622;DHT22;3852;52.284;8.032;2022-11-02T17:34:00;11.20;99.90
7622;DHT22;3852;52.284;8.032;2022-11-02T17:36:41;11.10;99.90
7622;DHT22;3852;52.284;8.032;2022-11-02T17:39:13;11.20;99.90
7622;DHT22;3852;52.284;8.032;2022-11-02T17:41:41;11.20;99.90
7622;DHT22;3852;52.284;8.032;2022-11-02T17:44:26;11.20;99.90
7622;DHT22;3852;52.284;8.032;2022-11-02T17:46:53;11.10;99.90
7622;DHT22;3852;52.284;8.032;2022-11-02T17:49:19;11.10;99.90
7622;DHT22;3852;52.284;8.032;2022-11-02T17:51:46;11.10;99.90
7622;DHT22;3852;52.284;8.032;2022-11-02T17:54:13;11.10;99.90
7622;DHT22;3852;52.284;8.032;2022-11-02T17:56:39;11.10;99.90
7622;DHT22;3852;52.284;8.032;2022-11-02T17:59:05;11.00;99.90
7622;DHT22;3852;52.284;8.032;2022-11-02T18:01:31;11.00;99.90
7622;DHT22;3852;52.284;8.032;2022-11-02T18:03:57;11.00;99.90
7622;DHT22;3852;52.284;8.032;2022-11-02T18:06:23;11.00;99.90
7622;DHT22;3852;52.284;8.032;2022-11-02T18:08:49;10.90;99.90
7622;DHT22;3852;52.284;8.032;2022-11-02T18:11:33;11.00;99.90
7622;DHT22;3852;52.284;8.032;2022-11-02T18:13:59;11.00;99.90
7622;DHT22;3852;52.284;8.032;2022-11-02T18:16:25;11.00;99.90
7622;DHT22;3852;52.284;8.032;2022-11-02T18:18:50;11.00;99.90
7622;DHT22;3852;52.284;8.032;2022-11-02T18:21:16;10.90;99.90
7622;DHT22;3852;52.284;8.032;2022-11-02T18:23:42;10.90;99.90
7622;DHT22;3852;52.284;8.032;2022-11-02T18:26:10;11.00;99.90
7622;DHT22;3852;52.284;8.032;2022-11-02T18:28:36;11.00;99.90
7622;DHT22;3852;52.284;8.032;2022-11-02T18:31:07;10.90;99.90
7622;DHT22;3852;52.284;8.032;2022-11-02T18:33:33;11.00;99.90
7622;DHT22;3852;52.284;8.032;2022-11-02T18:36:04;11.00;99.90
7622;DHT22;3852;52.284;8.032;2022-11-02T18:38:31;11.20;99.90
7622;DHT22;3852;52.284;8.032;2022-11-02T18:41:02;11.30;99.90
7622;DHT22;3852;52.284;8.032;2022-11-02T18:43:52;11.10;99.90
7622;DHT22;3852;52.284;8.032;2022-11-02T18:46:19;11.10;99.90
7622;DHT22;3852;52.284;8.032;2022-11-02T18:48:45;11.20;99.90
7622;DHT22;3852;52.284;8.032;2022-11-02T18:51:11;11.10;99.90
7622;DHT22;3852;52.284;8.032;2022-11-02T18:53:37;11.10;99.90
7622;DHT22;3852;52.284;8.032;2022-11-02T18:56:03;11.00;99.90
7622;DHT22;3852;52.284;8.032;2022-11-02T18:58:30;10.90;99.90
7622;DHT22;3852;52.284;8.032;2022-11-02T19:01:07;10.90;99.90
7622;DHT22;3852;52.284;8.032;2022-11-02T19:03:34;10.80;99.90
7622;DHT22;3852;52.284;8.032;2022-11-02T19:06:01;10.80;99.90
7622;DHT22;3852;52.284;8.032;2022-11-02T19:08:45;10.80;99.90
7622;DHT22;3852;52.284;8.032;2022-11-02T19:11:30;10.70;99.90
7622;DHT22;3852;52.284;8.032;2022-11-02T19:13:57;10.60;99.90